Time;durP1;ratioP1;P1;durP2;ratioP2;P2;SDS_P1;SDS_P2;PMS_P1;PMS_P2;Temp;Humidity;BMP_temperature;BMP_pressure;BME280_temperature;BME280_humidity;BME280_pressure;Samples;Min_cycle;Max_cycle;Signal;HPM_P1;HPM_P2
2021/10/17 00:02:36;;;;;;;24.95;17.20;;;;;;;;;;4983344;28;20026;-68
2021/10/17 00:05:23;;;;;;;24.00;16.70;;;;;;;;;;4988456;28;20355;-61
2021/10/17 00:08:09;;;;;;;24.50;18.27;;;;;;;;;;4993776;28;20030;-70
2021/10/17 00:10:54;;;;;;;24.38;17.35;;;;;;;;;;4964988;28;20377;-68
2021/10/17 00:13:39;;;;;;;25.70;19.70;;;;;;;;;;5004364;28;20049;-71
2021/10/17 00:16:24;;;;;;;26.35;18.80;;;;;;;;;;4985817;28;20388;-68
2021/10/17 00:19:10;;;;;;;22.80;16.75;;;;;;;;;;4993634;28;20631;-68
2021/10/17 00:21:55;;;;;;;24.08;18.17;;;;;;;;;;4977516;28;20030;-69
2021/10/17 00:24:40;;;;;;;25.20;17.88;;;;;;;;;;4973174;28;20480;-70
2021/10/17 00:27:25;;;;;;;21.70;16.15;;;;;;;;;;4988999;28;20087;-62
2021/10/17 00:30:11;;;;;;;24.88;17.73;;;;;;;;;;4999212;28;20038;-63
2021/10/17 00:32:57;;;;;;;21.25;15.18;;;;;;;;;;4986476;28;20408;-63
2021/10/17 00:35:42;;;;;;;26.27;19.02;;;;;;;;;;4989997;28;20097;-62
2021/10/17 00:38:27;;;;;;;23.52;16.70;;;;;;;;;;4982268;28;20104;-61
2021/10/17 00:41:13;;;;;;;23.70;17.15;;;;;;;;;;4997831;28;20034;-66
2021/10/17 00:43:59;;;;;;;27.38;17.42;;;;;;;;;;4989681;28;20448;-65
2021/10/17 00:46:44;;;;;;;23.73;17.35;;;;;;;;;;4989418;28;20464;-65
2021/10/17 00:49:30;;;;;;;26.30;18.75;;;;;;;;;;4981319;28;20927;-65
2021/10/17 00:52:15;;;;;;;23.55;16.13;;;;;;;;;;4991994;28;20064;-66
2021/10/17 00:55:01;;;;;;;21.45;16.95;;;;;;;;;;4999031;28;20038;-65
2021/10/17 00:57:46;;;;;;;22.70;17.27;;;;;;;;;;4989235;28;20553;-65
2021/10/17 01:00:31;;;;;;;21.67;16.05;;;;;;;;;;4983364;28;20027;-66
2021/10/17 01:03:17;;;;;;;21.88;16.45;;;;;;;;;;4990392;28;20044;-62
2021/10/17 01:06:02;;;;;;;24.77;17.35;;;;;;;;;;4994166;28;20038;-62
2021/10/17 01:08:47;;;;;;;22.27;17.33;;;;;;;;;;4999103;28;20099;-62
2021/10/17 01:11:40;;;;;;;25.05;18.17;;;;;;;;;;4991746;28;20045;-61
2021/10/17 01:14:25;;;;;;;24.20;17.70;;;;;;;;;;5007334;28;20505;-62
2021/10/17 01:17:10;;;;;;;22.23;17.55;;;;;;;;;;4992369;28;20032;-62
2021/10/17 01:19:56;;;;;;;22.35;16.23;;;;;;;;;;5002881;28;20057;-63
2021/10/17 01:22:42;;;;;;;21.42;15.70;;;;;;;;;;4995360;28;20516;-68
2021/10/17 01:25:27;;;;;;;23.65;16.15;;;;;;;;;;4997921;28;20493;-69
2021/10/17 01:28:12;;;;;;;25.85;18.95;;;;;;;;;;4987713;28;20481;-68
2021/10/17 01:30:58;;;;;;;21.85;17.02;;;;;;;;;;4985967;28;20045;-67
2021/10/17 01:33:43;;;;;;;22.15;16.38;;;;;;;;;;4989993;28;20038;-67
2021/10/17 01:36:28;;;;;;;22.85;17.92;;;;;;;;;;5000488;28;20473;-68
2021/10/17 01:39:15;;;;;;;22.48;15.90;;;;;;;;;;4997960;28;20111;-68
2021/10/17 01:42:01;;;;;;;24.15;17.65;;;;;;;;;;4989340;28;20133;-62
2021/10/17 01:44:46;;;;;;;26.17;17.17;;;;;;;;;;4984050;28;20438;-61
2021/10/17 01:47:31;;;;;;;25.20;17.05;;;;;;;;;;4997913;28;20045;-61
2021/10/17 01:50:17;;;;;;;22.45;16.35;;;;;;;;;;4978579;28;20069;-62
2021/10/17 01:53:02;;;;;;;24.70;17.65;;;;;;;;;;4994275;28;20122;-64
2021/10/17 01:55:47;;;;;;;24.05;17.73;;;;;;;;;;5004575;28;20101;-63
2021/10/17 01:58:32;;;;;;;22.13;15.55;;;;;;;;;;4978541;28;20036;-67
2021/10/17 02:01:18;;;;;;;24.02;17.40;;;;;;;;;;4999178;28;20535;-68
2021/10/17 02:04:04;;;;;;;22.80;17.20;;;;;;;;;;4983858;28;20058;-71
2021/10/17 02:06:49;;;;;;;25.92;19.08;;;;;;;;;;4978149;28;20042;-70
2021/10/17 02:09:35;;;;;;;21.10;16.35;;;;;;;;;;4988424;28;20101;-68
2021/10/17 02:12:26;;;;;;;24.75;17.33;;;;;;;;;;5004593;28;20125;-69
2021/10/17 02:15:11;;;;;;;24.33;17.48;;;;;;;;;;5002485;28;20040;-66
2021/10/17 02:17:56;;;;;;;22.08;16.95;;;;;;;;;;5002347;28;20030;-60
2021/10/17 02:20:42;;;;;;;25.67;18.73;;;;;;;;;;4995323;28;20041;-60
2021/10/17 02:23:27;;;;;;;25.00;17.73;;;;;;;;;;4993232;28;20038;-58
2021/10/17 02:26:12;;;;;;;24.75;17.00;;;;;;;;;;4992475;28;20052;-60
2021/10/17 02:28:58;;;;;;;24.42;17.75;;;;;;;;;;4989039;28;20540;-61
2021/10/17 02:31:43;;;;;;;20.13;15.10;;;;;;;;;;4978401;28;20127;-68
2021/10/17 02:34:28;;;;;;;25.58;17.60;;;;;;;;;;4991163;28;20036;-68
2021/10/17 02:37:13;;;;;;;28.08;19.17;;;;;;;;;;4982985;28;20512;-61
2021/10/17 02:39:59;;;;;;;23.58;18.48;;;;;;;;;;4992581;28;20042;-64
2021/10/17 02:42:44;;;;;;;24.35;16.17;;;;;;;;;;4991882;28;20045;-62
2021/10/17 02:45:29;;;;;;;20.00;15.32;;;;;;;;;;4989557;28;20065;-60
2021/10/17 02:48:15;;;;;;;23.45;16.85;;;;;;;;;;4983825;28;20111;-61
2021/10/17 02:51:00;;;;;;;22.13;16.70;;;;;;;;;;4989833;28;20034;-61
2021/10/17 02:53:45;;;;;;;25.27;17.27;;;;;;;;;;5002626;28;20080;-68
2021/10/17 02:56:30;;;;;;;23.35;17.42;;;;;;;;;;4993023;28;20037;-69
2021/10/17 02:59:16;;;;;;;25.98;16.88;;;;;;;;;;4995652;28;20053;-70
2021/10/17 03:02:01;;;;;;;20.73;15.57;;;;;;;;;;4990018;28;20034;-69
2021/10/17 03:04:46;;;;;;;20.90;16.20;;;;;;;;;;4990397;28;21394;-67
2021/10/17 03:07:31;;;;;;;21.90;16.40;;;;;;;;;;4982043;28;20066;-70
2021/10/17 03:10:17;;;;;;;22.20;17.13;;;;;;;;;;4975900;28;20562;-64
2021/10/17 03:13:02;;;;;;;22.02;16.02;;;;;;;;;;4987839;28;20038;-63
2021/10/17 03:15:47;;;;;;;22.30;16.20;;;;;;;;;;4997616;28;20125;-62
2021/10/17 03:18:33;;;;;;;22.02;15.75;;;;;;;;;;5006077;28;20026;-62
2021/10/17 03:21:18;;;;;;;20.65;15.82;;;;;;;;;;4987129;28;20029;-62
2021/10/17 03:24:04;;;;;;;24.85;17.52;;;;;;;;;;4996628;28;20033;-60
2021/10/17 03:26:49;;;;;;;24.35;17.38;;;;;;;;;;4994224;28;20048;-65
2021/10/17 03:29:34;;;;;;;22.90;16.95;;;;;;;;;;4988728;28;20076;-68
2021/10/17 03:32:19;;;;;;;20.92;16.35;;;;;;;;;;4984128;28;20088;-66
2021/10/17 03:35:05;;;;;;;19.30;14.63;;;;;;;;;;5000774;28;20042;-68
2021/10/17 03:37:50;;;;;;;21.55;16.70;;;;;;;;;;4994906;28;20040;-67
2021/10/17 03:40:35;;;;;;;22.13;16.30;;;;;;;;;;4999974;28;20096;-65
2021/10/17 03:43:21;;;;;;;25.10;16.35;;;;;;;;;;4990209;28;20030;-63
2021/10/17 03:46:06;;;;;;;18.38;14.70;;;;;;;;;;4993419;28;20505;-62
2021/10/17 03:48:52;;;;;;;21.10;14.25;;;;;;;;;;4987745;28;20037;-65
2021/10/17 03:51:37;;;;;;;18.67;13.80;;;;;;;;;;5004716;28;20045;-65
2021/10/17 03:54:22;;;;;;;21.77;14.82;;;;;;;;;;4987320;28;20026;-66
2021/10/17 03:57:08;;;;;;;20.83;15.50;;;;;;;;;;5002561;28;20405;-64
2021/10/17 03:59:53;;;;;;;21.30;15.55;;;;;;;;;;4977499;28;20052;-66
2021/10/17 04:02:38;;;;;;;22.05;15.60;;;;;;;;;;5005442;28;20073;-66
2021/10/17 04:05:24;;;;;;;21.58;15.45;;;;;;;;;;4992902;28;20022;-61
2021/10/17 04:08:09;;;;;;;19.85;15.27;;;;;;;;;;4983501;28;20038;-65
2021/10/17 04:10:54;;;;;;;20.08;15.65;;;;;;;;;;5006345;28;20117;-65
2021/10/17 04:13:40;;;;;;;23.02;15.75;;;;;;;;;;4995387;28;20074;-65
2021/10/17 04:16:25;;;;;;;21.02;16.30;;;;;;;;;;5005294;28;20026;-68
2021/10/17 04:19:10;;;;;;;19.80;15.57;;;;;;;;;;5006657;28;20029;-66
2021/10/17 04:21:55;;;;;;;23.23;15.85;;;;;;;;;;4982544;28;20038;-60
2021/10/17 04:24:41;;;;;;;22.63;16.70;;;;;;;;;;5001104;28;20030;-67
2021/10/17 04:27:26;;;;;;;19.58;15.25;;;;;;;;;;4992016;28;20045;-72
2021/10/17 04:30:11;;;;;;;20.75;15.57;;;;;;;;;;4992922;28;20034;-72
2021/10/17 04:32:56;;;;;;;20.33;15.23;;;;;;;;;;4991713;28;20046;-71
2021/10/17 04:35:43;;;;;;;22.55;15.98;;;;;;;;;;4997479;28;20125;-73
2021/10/17 04:38:29;;;;;;;18.50;14.15;;;;;;;;;;4984248;28;20130;-71
2021/10/17 04:41:14;;;;;;;20.08;14.73;;;;;;;;;;4982140;28;20589;-69
2021/10/17 04:44:00;;;;;;;21.00;14.80;;;;;;;;;;4994763;28;20039;-67
2021/10/17 04:46:46;;;;;;;20.48;15.20;;;;;;;;;;4997763;28;20156;-66
2021/10/17 04:49:31;;;;;;;21.83;16.83;;;;;;;;;;4974333;28;20045;-67
2021/10/17 04:52:16;;;;;;;21.25;15.68;;;;;;;;;;4995491;28;20048;-68
2021/10/17 04:55:05;;;;;;;17.73;14.05;;;;;;;;;;4996760;28;20546;-69
2021/10/17 04:57:50;;;;;;;21.88;16.80;;;;;;;;;;5005721;28;20175;-68
2021/10/17 05:00:36;;;;;;;18.73;15.30;;;;;;;;;;4999332;28;20044;-60
2021/10/17 05:03:22;;;;;;;20.10;14.48;;;;;;;;;;4990245;28;20456;-64
2021/10/17 05:06:07;;;;;;;20.67;15.93;;;;;;;;;;5010357;28;20052;-66
2021/10/17 05:08:52;;;;;;;22.02;16.15;;;;;;;;;;4993465;28;20052;-64
2021/10/17 05:11:38;;;;;;;21.85;17.40;;;;;;;;;;4993163;28;20176;-65
2021/10/17 05:14:23;;;;;;;21.48;16.45;;;;;;;;;;5001094;28;20033;-65
2021/10/17 05:17:08;;;;;;;18.23;14.02;;;;;;;;;;5003621;28;20034;-62
2021/10/17 05:19:53;;;;;;;17.75;13.70;;;;;;;;;;5000054;28;20103;-67
2021/10/17 05:22:39;;;;;;;21.55;16.10;;;;;;;;;;4999818;28;20096;-64
2021/10/17 05:25:24;;;;;;;21.90;17.00;;;;;;;;;;5000408;28;20033;-62
2021/10/17 05:28:09;;;;;;;20.92;16.02;;;;;;;;;;4988069;28;20481;-61
2021/10/17 05:30:55;;;;;;;20.30;15.43;;;;;;;;;;4986028;28;20045;-61
2021/10/17 05:33:40;;;;;;;21.95;16.35;;;;;;;;;;4998175;28;20183;-62
2021/10/17 05:36:25;;;;;;;19.23;15.02;;;;;;;;;;5007451;28;20038;-63
2021/10/17 05:39:11;;;;;;;21.40;16.40;;;;;;;;;;4999802;28;20041;-67
2021/10/17 05:41:57;;;;;;;23.95;18.10;;;;;;;;;;4992269;28;20125;-67
2021/10/17 05:44:42;;;;;;;22.05;17.45;;;;;;;;;;4998639;28;20056;-67
2021/10/17 05:47:27;;;;;;;22.00;16.83;;;;;;;;;;4993211;28;20040;-67
2021/10/17 05:50:13;;;;;;;24.08;18.35;;;;;;;;;;5007378;28;20029;-66
2021/10/17 05:52:58;;;;;;;22.40;17.27;;;;;;;;;;5008761;28;20033;-66
2021/10/17 05:55:43;;;;;;;22.23;16.90;;;;;;;;;;4987876;28;20525;-74
2021/10/17 05:58:28;;;;;;;23.48;16.23;;;;;;;;;;5010894;28;20034;-67
2021/10/17 06:01:14;;;;;;;24.88;17.00;;;;;;;;;;4995369;28;20113;-70
2021/10/17 06:03:59;;;;;;;20.42;16.13;;;;;;;;;;5005466;28;20099;-69
2021/10/17 06:06:44;;;;;;;27.17;18.83;;;;;;;;;;5006300;28;20037;-68
2021/10/17 06:09:37;;;;;;;21.52;16.05;;;;;;;;;;4994838;28;20037;-67
2021/10/17 06:12:23;;;;;;;21.83;15.77;;;;;;;;;;5008678;28;20070;-69
2021/10/17 06:15:09;;;;;;;20.70;16.45;;;;;;;;;;5001028;28;20037;-71
2021/10/17 06:17:54;;;;;;;23.40;16.63;;;;;;;;;;4997197;28;20193;-63
2021/10/17 06:20:39;;;;;;;22.48;16.95;;;;;;;;;;5000119;28;20088;-65
2021/10/17 06:23:24;;;;;;;22.35;16.70;;;;;;;;;;4993784;28;20042;-63
2021/10/17 06:26:09;;;;;;;21.30;16.70;;;;;;;;;;5003089;28;20367;-63
2021/10/17 06:28:55;;;;;;;21.63;16.48;;;;;;;;;;4993240;28;20026;-63
2021/10/17 06:31:40;;;;;;;21.30;16.42;;;;;;;;;;4985259;28;20056;-62
2021/10/17 06:34:25;;;;;;;22.45;15.13;;;;;;;;;;5003551;28;20433;-62
2021/10/17 06:37:11;;;;;;;18.42;14.75;;;;;;;;;;4994015;28;20050;-62
2021/10/17 06:39:56;;;;;;;19.17;14.68;;;;;;;;;;4997023;28;20401;-61
2021/10/17 06:42:42;;;;;;;20.05;15.23;;;;;;;;;;5006466;28;20103;-63
2021/10/17 06:45:27;;;;;;;21.38;16.48;;;;;;;;;;4984643;28;20041;-61
2021/10/17 06:48:12;;;;;;;23.13;16.42;;;;;;;;;;4992952;28;20536;-62
2021/10/17 06:50:57;;;;;;;21.52;16.23;;;;;;;;;;5000475;28;20125;-71
2021/10/17 06:53:42;;;;;;;18.67;14.43;;;;;;;;;;4988239;28;20107;-67
2021/10/17 06:56:28;;;;;;;19.73;14.73;;;;;;;;;;4984973;28;20057;-67
2021/10/17 06:59:14;;;;;;;18.23;13.70;;;;;;;;;;5002276;28;20055;-66
2021/10/17 07:01:59;;;;;;;20.63;15.30;;;;;;;;;;4995485;28;20048;-66
2021/10/17 07:04:44;;;;;;;21.10;15.75;;;;;;;;;;4993431;28;20095;-66
2021/10/17 07:07:29;;;;;;;17.45;13.65;;;;;;;;;;4991732;28;20061;-61
2021/10/17 07:10:15;;;;;;;22.08;16.52;;;;;;;;;;4990838;28;20437;-60
2021/10/17 07:13:00;;;;;;;19.83;14.40;;;;;;;;;;4988997;28;20072;-63
2021/10/17 07:15:45;;;;;;;18.48;14.00;;;;;;;;;;4988689;28;20057;-64
2021/10/17 07:18:31;;;;;;;21.35;15.70;;;;;;;;;;5004673;28;20029;-66
2021/10/17 07:21:16;;;;;;;18.83;14.70;;;;;;;;;;5001048;28;20038;-67
2021/10/17 07:24:01;;;;;;;20.90;16.45;;;;;;;;;;4995158;28;20053;-65
2021/10/17 07:26:46;;;;;;;18.95;15.18;;;;;;;;;;4998393;28;20161;-61
2021/10/17 07:29:32;;;;;;;19.55;15.48;;;;;;;;;;4993288;28;20045;-65
2021/10/17 07:32:17;;;;;;;18.48;14.18;;;;;;;;;;5004112;28;20033;-63
2021/10/17 07:35:03;;;;;;;19.67;14.05;;;;;;;;;;4986096;28;20489;-67
2021/10/17 07:37:48;;;;;;;19.17;14.57;;;;;;;;;;4986769;28;20034;-64
2021/10/17 07:40:33;;;;;;;18.73;14.57;;;;;;;;;;5007908;28;20100;-64
2021/10/17 07:43:19;;;;;;;18.40;14.15;;;;;;;;;;5009354;28;20669;-65
2021/10/17 07:46:04;;;;;;;19.77;16.50;;;;;;;;;;5005830;28;20064;-67
2021/10/17 07:48:49;;;;;;;20.35;15.02;;;;;;;;;;4991828;28;20836;-66
2021/10/17 07:51:35;;;;;;;19.00;15.57;;;;;;;;;;4995191;28;20084;-66
2021/10/17 07:54:20;;;;;;;20.05;15.85;;;;;;;;;;4993741;28;20468;-65
2021/10/17 07:57:06;;;;;;;18.48;15.27;;;;;;;;;;4975981;28;20026;-63
2021/10/17 07:59:51;;;;;;;20.60;16.05;;;;;;;;;;4988491;28;20100;-63
2021/10/17 08:02:37;;;;;;;19.08;16.30;;;;;;;;;;4998517;28;20035;-66
2021/10/17 08:05:22;;;;;;;21.95;16.60;;;;;;;;;;5001361;28;20038;-62
2021/10/17 08:08:08;;;;;;;20.67;17.02;;;;;;;;;;5003278;28;20605;-63
2021/10/17 08:10:53;;;;;;;26.75;18.58;;;;;;;;;;5003126;28;20064;-62
2021/10/17 08:13:39;;;;;;;22.90;17.23;;;;;;;;;;4992666;28;20069;-65
2021/10/17 08:16:24;;;;;;;22.63;18.13;;;;;;;;;;4992411;28;20033;-63
2021/10/17 08:19:09;;;;;;;24.00;17.65;;;;;;;;;;4998874;28;20064;-65
2021/10/17 08:21:55;;;;;;;24.13;18.85;;;;;;;;;;4999202;28;20512;-60
2021/10/17 08:24:40;;;;;;;21.33;17.92;;;;;;;;;;4988870;28;20109;-67
2021/10/17 08:27:25;;;;;;;21.10;15.90;;;;;;;;;;4996761;28;20058;-65
2021/10/17 08:30:11;;;;;;;23.40;16.83;;;;;;;;;;4995574;28;20071;-64
2021/10/17 08:32:56;;;;;;;23.60;18.50;;;;;;;;;;5007240;28;20117;-66
2021/10/17 08:35:41;;;;;;;21.58;17.10;;;;;;;;;;4980002;28;20124;-66
2021/10/17 08:38:27;;;;;;;20.88;15.68;;;;;;;;;;4990599;28;20070;-67
2021/10/17 08:41:12;;;;;;;21.08;16.58;;;;;;;;;;4996595;28;21181;-61
2021/10/17 08:43:58;;;;;;;24.45;16.88;;;;;;;;;;5001995;28;20030;-61
2021/10/17 08:46:43;;;;;;;19.00;15.80;;;;;;;;;;4992073;28;20018;-62
2021/10/17 08:49:29;;;;;;;19.35;14.68;;;;;;;;;;4982632;28;20045;-65
2021/10/17 08:52:14;;;;;;;18.85;14.82;;;;;;;;;;5001004;28;20141;-64
2021/10/17 08:54:59;;;;;;;17.83;13.40;;;;;;;;;;4984379;28;20384;-64
2021/10/17 08:57:44;;;;;;;20.02;15.07;;;;;;;;;;4990137;28;20056;-61
2021/10/17 09:00:31;;;;;;;17.80;14.20;;;;;;;;;;4997449;28;20033;-66
2021/10/17 09:03:32;;;;;;;17.77;14.30;;;;;;;;;;4972467;28;20038;-69
2021/10/17 09:06:19;;;;;;;19.42;14.70;;;;;;;;;;4995938;28;20062;-67
2021/10/17 09:09:09;;;;;;;17.95;14.63;;;;;;;;;;4987227;28;20114;-70
2021/10/17 09:11:58;;;;;;;17.30;14.65;;;;;;;;;;4996117;28;20120;-68
2021/10/17 09:14:43;;;;;;;19.10;14.52;;;;;;;;;;4991351;28;20049;-68
2021/10/17 09:17:28;;;;;;;18.30;15.25;;;;;;;;;;4985296;28;20109;-64
2021/10/17 09:20:14;;;;;;;17.83;14.88;;;;;;;;;;4992013;28;20042;-69
2021/10/17 09:23:00;;;;;;;17.08;13.88;;;;;;;;;;4991586;28;20046;-69
2021/10/17 09:25:45;;;;;;;18.88;14.13;;;;;;;;;;5009501;28;20033;-75
2021/10/17 09:28:31;;;;;;;19.60;15.20;;;;;;;;;;4999369;28;20045;-71
2021/10/17 09:31:17;;;;;;;17.13;14.60;;;;;;;;;;5009520;28;20125;-71
2021/10/17 09:34:02;;;;;;;16.73;13.10;;;;;;;;;;4985265;28;20479;-70
2021/10/17 09:36:47;;;;;;;16.90;14.40;;;;;;;;;;4990321;28;20048;-61
2021/10/17 09:39:35;;;;;;;16.73;14.55;;;;;;;;;;4994613;28;20177;-62
2021/10/17 09:42:21;;;;;;;17.55;14.50;;;;;;;;;;4996893;28;20038;-60
2021/10/17 09:45:27;;;;;;;18.45;15.48;;;;;;;;;;4993677;28;20030;-60
2021/10/17 09:48:28;;;;;;;17.83;14.45;;;;;;;;;;5006814;28;20038;-59
2021/10/17 09:51:18;;;;;;;15.95;14.25;;;;;;;;;;5006125;28;20485;-60
2021/10/17 09:54:03;;;;;;;16.55;14.60;;;;;;;;;;4994365;28;20025;-68
2021/10/17 09:56:48;;;;;;;17.20;15.00;;;;;;;;;;4996232;28;20488;-64
2021/10/17 09:59:34;;;;;;;16.65;14.85;;;;;;;;;;4990168;28;20073;-62
2021/10/17 10:02:20;;;;;;;17.58;15.77;;;;;;;;;;4988361;28;20037;-65
2021/10/17 10:05:05;;;;;;;17.90;15.88;;;;;;;;;;5005652;28;20029;-65
2021/10/17 10:07:51;;;;;;;20.35;17.50;;;;;;;;;;5009429;28;20030;-62
2021/10/17 10:10:37;;;;;;;18.05;15.60;;;;;;;;;;5006138;28;20038;-63
2021/10/17 10:13:23;;;;;;;18.33;16.42;;;;;;;;;;4993055;28;20491;-65
2021/10/17 10:16:09;;;;;;;19.90;17.88;;;;;;;;;;5006480;28;20030;-73
2021/10/17 10:19:02;;;;;;;19.13;17.23;;;;;;;;;;4994052;28;20033;-71
2021/10/17 10:21:49;;;;;;;18.88;16.88;;;;;;;;;;5003513;28;20412;-70
2021/10/17 10:24:35;;;;;;;21.15;18.95;;;;;;;;;;4990592;28;20056;-71
2021/10/17 10:27:21;;;;;;;19.73;15.60;;;;;;;;;;4989813;28;20042;-71
2021/10/17 10:30:30;;;;;;;18.50;14.82;;;;;;;;;;5009429;28;20124;-66
2021/10/17 10:33:19;;;;;;;20.48;17.35;;;;;;;;;;4991154;28;20430;-73
2021/10/17 10:36:09;;;;;;;18.60;14.95;;;;;;;;;;4999518;28;20461;-71
2021/10/17 10:38:54;;;;;;;18.30;15.40;;;;;;;;;;4987855;28;20030;-71
2021/10/17 10:41:44;;;;;;;17.45;15.45;;;;;;;;;;4978365;28;20029;-73
2021/10/17 10:44:32;;;;;;;19.90;16.45;;;;;;;;;;4991482;28;20084;-73
2021/10/17 10:47:22;;;;;;;20.30;17.88;;;;;;;;;;4994082;28;20621;-72
2021/10/17 10:50:07;;;;;;;18.88;16.30;;;;;;;;;;4998605;28;20469;-63
2021/10/17 10:52:52;;;;;;;19.65;17.20;;;;;;;;;;4986101;28;20033;-61
2021/10/17 10:55:46;;;;;;;21.30;16.55;;;;;;;;;;4993485;28;20041;-64
2021/10/17 10:58:36;;;;;;;19.48;16.00;;;;;;;;;;4991251;28;20040;-60
2021/10/17 11:01:41;;;;;;;22.10;17.65;;;;;;;;;;5006299;28;20037;-62
2021/10/17 11:04:49;;;;;;;21.92;18.08;;;;;;;;;;4969006;28;20221;-60
2021/10/17 11:07:36;;;;;;;40.88;27.40;;;;;;;;;;4976357;28;20067;-65
2021/10/17 11:10:21;;;;;;;33.10;24.63;;;;;;;;;;4993830;28;20076;-62
2021/10/17 11:13:09;;;;;;;22.83;19.75;;;;;;;;;;4986045;28;20305;-62
2021/10/17 11:15:54;;;;;;;27.88;20.08;;;;;;;;;;4999611;28;20503;-65
2021/10/17 11:18:40;;;;;;;26.02;21.05;;;;;;;;;;5000891;28;20527;-63
2021/10/17 11:21:30;;;;;;;21.10;17.15;;;;;;;;;;5007152;28;20763;-66
2021/10/17 11:24:17;;;;;;;22.70;18.73;;;;;;;;;;4993683;28;20315;-65
2021/10/17 11:27:13;;;;;;;21.70;17.83;;;;;;;;;;4991049;28;20030;-76
2021/10/17 11:29:58;;;;;;;21.70;17.42;;;;;;;;;;4997816;28;20164;-64
2021/10/17 11:32:43;;;;;;;21.77;17.58;;;;;;;;;;4993417;28;20679;-62
2021/10/17 11:35:32;;;;;;;20.23;16.40;;;;;;;;;;4989432;28;20112;-63
2021/10/17 11:38:18;;;;;;;23.60;18.40;;;;;;;;;;4991601;28;20176;-62
2021/10/17 11:41:04;;;;;;;22.60;17.90;;;;;;;;;;4993683;28;20595;-66
2021/10/17 11:43:51;;;;;;;23.13;18.35;;;;;;;;;;4992747;28;20030;-60
2021/10/17 11:46:37;;;;;;;22.50;18.08;;;;;;;;;;5012789;28;20068;-65
2021/10/17 11:49:22;;;;;;;23.15;18.55;;;;;;;;;;4993446;28;20026;-61
2021/10/17 11:52:11;;;;;;;23.88;18.48;;;;;;;;;;4989236;28;20451;-62
2021/10/17 11:54:57;;;;;;;22.77;17.90;;;;;;;;;;5005818;28;20492;-60
2021/10/17 11:57:42;;;;;;;23.10;18.80;;;;;;;;;;4988095;28;20046;-64
2021/10/17 12:00:28;;;;;;;22.67;17.92;;;;;;;;;;4990638;28;20681;-62
2021/10/17 12:03:17;;;;;;;23.35;18.35;;;;;;;;;;4994008;28;20041;-61
2021/10/17 12:06:03;;;;;;;24.20;18.98;;;;;;;;;;5003725;28;20040;-70
2021/10/17 12:08:49;;;;;;;23.33;18.00;;;;;;;;;;4981841;28;20042;-68
2021/10/17 12:11:36;;;;;;;23.08;18.38;;;;;;;;;;5000243;28;20368;-69
2021/10/17 12:14:25;;;;;;;21.08;17.15;;;;;;;;;;4971581;28;20212;-69
2021/10/17 12:17:13;;;;;;;26.10;17.75;;;;;;;;;;4990845;28;20420;-70
2021/10/17 12:20:19;;;;;;;21.50;16.80;;;;;;;;;;5001172;28;20076;-74
2021/10/17 12:23:04;;;;;;;23.33;18.15;;;;;;;;;;4983842;28;20079;-63
2021/10/17 12:25:50;;;;;;;20.67;15.82;;;;;;;;;;4989974;28;20457;-64
2021/10/17 12:28:35;;;;;;;20.92;15.50;;;;;;;;;;4993341;28;20037;-64
2021/10/17 12:31:29;;;;;;;22.65;16.05;;;;;;;;;;4985408;28;20066;-66
2021/10/17 12:34:15;;;;;;;22.67;16.77;;;;;;;;;;4994535;28;20038;-64
2021/10/17 12:37:00;;;;;;;18.17;14.68;;;;;;;;;;4986262;28;20034;-67
2021/10/17 12:39:46;;;;;;;22.10;16.23;;;;;;;;;;4984882;28;20026;-64
2021/10/17 12:42:42;;;;;;;20.75;16.17;;;;;;;;;;4999767;28;20069;-71
2021/10/17 12:45:31;;;;;;;19.95;16.25;;;;;;;;;;5005204;28;20025;-62
2021/10/17 12:48:21;;;;;;;20.90;15.20;;;;;;;;;;5008211;28;20037;-69
2021/10/17 12:51:06;;;;;;;;;;;;;;;;;;4990723;28;20154;-69
2021/10/17 12:54:05;;;;;;;22.50;16.05;;;;;;;;;;4992667;28;19924;-69
2021/10/17 12:56:51;;;;;;;23.13;17.27;;;;;;;;;;4998428;28;20108;-69
2021/10/17 12:59:51;;;;;;;20.48;16.85;;;;;;;;;;4993177;28;20477;-60
2021/10/17 13:02:37;;;;;;;21.80;16.10;;;;;;;;;;4987578;28;20116;-69
2021/10/17 13:05:24;;;;;;;22.58;17.52;;;;;;;;;;4997754;28;20115;-69
2021/10/17 13:08:10;;;;;;;22.75;16.92;;;;;;;;;;4987042;28;20545;-71
2021/10/17 13:11:08;;;;;;;23.50;17.02;;;;;;;;;;4992924;28;20046;-73
2021/10/17 13:13:53;;;;;;;22.73;18.02;;;;;;;;;;4989173;28;20501;-72
2021/10/17 13:16:40;;;;;;;24.27;17.00;;;;;;;;;;4986540;28;20088;-69
2021/10/17 13:19:25;;;;;;;22.98;16.40;;;;;;;;;;5000160;28;20485;-60
2021/10/17 13:22:10;;;;;;;22.08;16.70;;;;;;;;;;4986726;28;20042;-61
2021/10/17 13:24:56;;;;;;;23.27;16.52;;;;;;;;;;5002064;28;20133;-64
2021/10/17 13:27:41;;;;;;;24.75;17.63;;;;;;;;;;4991081;28;20034;-63
2021/10/17 13:30:27;;;;;;;22.80;16.92;;;;;;;;;;5001266;28;20033;-60
2021/10/17 13:33:12;;;;;;;23.60;16.52;;;;;;;;;;4991563;28;20509;-61
2021/10/17 13:35:57;;;;;;;21.92;17.05;;;;;;;;;;4994373;28;20030;-69
2021/10/17 13:38:43;;;;;;;27.45;17.92;;;;;;;;;;5000219;28;20042;-71
2021/10/17 13:41:30;;;;;;;27.50;17.38;;;;;;;;;;5004230;28;20033;-75
2021/10/17 13:44:17;;;;;;;25.58;16.25;;;;;;;;;;4994832;28;20038;-74
2021/10/17 13:47:02;;;;;;;25.85;18.65;;;;;;;;;;4983819;28;20049;-73
2021/10/17 13:49:47;;;;;;;26.92;18.77;;;;;;;;;;4996538;28;20042;-71
2021/10/17 13:52:33;;;;;;;23.35;18.40;;;;;;;;;;5002714;28;20107;-72
2021/10/17 13:55:18;;;;;;;23.95;17.17;;;;;;;;;;4994154;28;20084;-66
2021/10/17 13:58:03;;;;;;;23.25;17.60;;;;;;;;;;5000557;28;20041;-60
2021/10/17 14:00:49;;;;;;;26.23;18.90;;;;;;;;;;4965705;28;20558;-58
2021/10/17 14:03:34;;;;;;;21.92;16.80;;;;;;;;;;4993818;28;20084;-60
2021/10/17 14:06:19;;;;;;;25.10;17.65;;;;;;;;;;4995127;28;20529;-60
2021/10/17 14:09:04;;;;;;;22.02;16.58;;;;;;;;;;4992651;28;20049;-58
2021/10/17 14:11:50;;;;;;;24.52;17.15;;;;;;;;;;5008761;28;20030;-65
2021/10/17 14:14:35;;;;;;;23.90;16.73;;;;;;;;;;4991418;28;20042;-66
2021/10/17 14:17:20;;;;;;;26.40;17.73;;;;;;;;;;4980867;28;20455;-68
2021/10/17 14:20:07;;;;;;;25.80;18.35;;;;;;;;;;5003238;28;20485;-64
2021/10/17 14:22:52;;;;;;;26.85;17.75;;;;;;;;;;4999179;28;20055;-65
2021/10/17 14:25:37;;;;;;;22.98;17.38;;;;;;;;;;4991390;28;20026;-66
2021/10/17 14:28:23;;;;;;;24.58;17.20;;;;;;;;;;4994680;28;20060;-64
2021/10/17 14:31:08;;;;;;;22.85;16.75;;;;;;;;;;4983107;28;20034;-61
2021/10/17 14:33:53;;;;;;;24.30;18.83;;;;;;;;;;4997435;28;20239;-67
2021/10/17 14:36:39;;;;;;;26.00;17.80;;;;;;;;;;5007063;28;20037;-67
2021/10/17 14:39:24;;;;;;;26.60;19.13;;;;;;;;;;4995461;28;20080;-65
2021/10/17 14:42:09;;;;;;;23.80;17.67;;;;;;;;;;5006825;28;20026;-63
2021/10/17 14:44:55;;;;;;;25.52;18.90;;;;;;;;;;5007032;28;20477;-64
2021/10/17 14:47:40;;;;;;;23.30;17.00;;;;;;;;;;5003215;28;20389;-65
2021/10/17 14:50:25;;;;;;;26.75;18.63;;;;;;;;;;5000808;28;20386;-69
2021/10/17 14:53:11;;;;;;;27.95;19.40;;;;;;;;;;4997148;28;20035;-64
2021/10/17 14:55:56;;;;;;;24.90;18.83;;;;;;;;;;4973854;28;20421;-64
2021/10/17 14:58:42;;;;;;;25.08;17.35;;;;;;;;;;4984979;28;20441;-67
2021/10/17 15:01:27;;;;;;;41.92;29.30;;;;;;;;;;4984109;28;20764;-65
2021/10/17 15:04:12;;;;;;;32.15;24.65;;;;;;;;;;4986940;28;20137;-64
2021/10/17 15:06:59;;;;;;;26.83;18.90;;;;;;;;;;4989504;28;20029;-62
2021/10/17 15:09:44;;;;;;;28.38;20.08;;;;;;;;;;5007874;28;20373;-64
2021/10/17 15:12:29;;;;;;;27.08;18.75;;;;;;;;;;4997309;28;20029;-65
2021/10/17 15:15:15;;;;;;;25.80;18.55;;;;;;;;;;4999180;28;20041;-63
2021/10/17 15:18:00;;;;;;;24.98;18.52;;;;;;;;;;5006380;28;20030;-63
2021/10/17 15:20:47;;;;;;;24.85;17.75;;;;;;;;;;5003796;28;20425;-63
2021/10/17 15:23:33;;;;;;;28.58;19.38;;;;;;;;;;4989430;28;20424;-64
2021/10/17 15:26:18;;;;;;;27.77;18.63;;;;;;;;;;5003525;28;20076;-61
2021/10/17 15:29:03;;;;;;;26.10;18.83;;;;;;;;;;5005833;28;20030;-67
2021/10/17 15:31:49;;;;;;;24.92;18.42;;;;;;;;;;4989512;28;20461;-65
2021/10/17 15:34:34;;;;;;;26.80;18.58;;;;;;;;;;5007616;28;20512;-67
2021/10/17 15:37:19;;;;;;;26.08;19.52;;;;;;;;;;5003651;28;20038;-66
2021/10/17 15:40:06;;;;;;;26.17;18.98;;;;;;;;;;4990963;28;20053;-65
2021/10/17 15:42:53;;;;;;;30.13;19.70;;;;;;;;;;5009444;28;20460;-65
2021/10/17 15:45:38;;;;;;;26.00;18.73;;;;;;;;;;5005164;28;20037;-61
2021/10/17 15:48:24;;;;;;;27.33;19.48;;;;;;;;;;4998667;28;20042;-64
2021/10/17 15:51:09;;;;;;;28.55;20.13;;;;;;;;;;4990877;28;20417;-64
2021/10/17 15:53:57;;;;;;;28.17;20.13;;;;;;;;;;4996934;28;20033;-63
2021/10/17 15:56:42;;;;;;;27.77;20.00;;;;;;;;;;4992665;28;20042;-64
2021/10/17 15:59:28;;;;;;;28.83;19.30;;;;;;;;;;4994612;28;20184;-64
2021/10/17 16:02:14;;;;;;;28.45;19.38;;;;;;;;;;4991604;28;20125;-61
2021/10/17 16:04:59;;;;;;;30.70;21.48;;;;;;;;;;4989715;28;20679;-64
2021/10/17 16:07:44;;;;;;;31.05;22.27;;;;;;;;;;4988148;28;20137;-65
2021/10/17 16:10:30;;;;;;;31.70;21.55;;;;;;;;;;4993825;28;20080;-64